sensor_id;sensor_type;location;lat;lon;timestamp;pressure;altitude;pressure_sealevel;temperature
52673;BMP280;38568;53.260;-2.504;2023-12-07T00:01:05;100914.89;;;19.20
52673;BMP280;38568;53.260;-2.504;2023-12-07T00:03:31;100902.20;;;19.58
52673;BMP280;38568;53.260;-2.504;2023-12-07T00:05:57;100892.48;;;19.50
52673;BMP280;38568;53.260;-2.504;2023-12-07T00:08:22;100892.47;;;19.53
52673;BMP280;38568;53.260;-2.504;2023-12-07T00:10:48;100886.93;;;19.47
52673;BMP280;38568;53.260;-2.504;2023-12-07T00:13:14;100883.79;;;19.32
52673;BMP280;38568;53.260;-2.504;2023-12-07T00:15:40;100886.95;;;19.06
52673;BMP280;38568;53.260;-2.504;2023-12-07T00:18:06;100884.71;;;19.34
52673;BMP280;38568;53.260;-2.504;2023-12-07T00:20:31;100879.75;;;19.06
52673;BMP280;38568;53.260;-2.504;2023-12-07T00:22:57;100871.83;;;18.90
52673;BMP280;38568;53.260;-2.504;2023-12-07T00:25:23;100870.03;;;19.14
52673;BMP280;38568;53.260;-2.504;2023-12-07T00:27:49;100871.83;;;19.04
52673;BMP280;38568;53.260;-2.504;2023-12-07T00:30:16;100869.32;;;18.76
52673;BMP280;38568;53.260;-2.504;2023-12-07T00:32:40;100867.52;;;19.20
52673;BMP280;38568;53.260;-2.504;2023-12-07T00:35:07;100870.54;;;18.88
52673;BMP280;38568;53.260;-2.504;2023-12-07T00:37:32;100868.22;;;19.06
52673;BMP280;38568;53.260;-2.504;2023-12-07T00:40:03;100866.54;;;19.06
52673;BMP280;38568;53.260;-2.504;2023-12-07T00:42:23;100861.97;;;18.75
52673;BMP280;38568;53.260;-2.504;2023-12-07T00:44:48;100860.64;;;18.72
52673;BMP280;38568;53.260;-2.504;2023-12-07T00:47:14;100864.07;;;18.93
52673;BMP280;38568;53.260;-2.504;2023-12-07T00:49:40;100864.99;;;18.92
52673;BMP280;38568;53.260;-2.504;2023-12-07T00:52:11;100861.33;;;18.67
52673;BMP280;38568;53.260;-2.504;2023-12-07T00:54:31;100860.31;;;18.83
52673;BMP280;38568;53.260;-2.504;2023-12-07T00:56:57;100853.32;;;18.77
52673;BMP280;38568;53.260;-2.504;2023-12-07T00:59:23;100847.25;;;18.74
52673;BMP280;38568;53.260;-2.504;2023-12-07T01:01:48;100838.21;;;18.66
52673;BMP280;38568;53.260;-2.504;2023-12-07T01:04:14;100839.04;;;18.67
52673;BMP280;38568;53.260;-2.504;2023-12-07T01:06:39;100835.73;;;18.66
52673;BMP280;38568;53.260;-2.504;2023-12-07T01:09:10;100833.94;;;18.58
52673;BMP280;38568;53.260;-2.504;2023-12-07T01:11:31;100832.99;;;18.58
52673;BMP280;38568;53.260;-2.504;2023-12-07T01:13:57;100834.09;;;18.56
52673;BMP280;38568;53.260;-2.504;2023-12-07T01:16:27;100829.04;;;18.61
52673;BMP280;38568;53.260;-2.504;2023-12-07T01:18:48;100827.68;;;18.60
52673;BMP280;38568;53.260;-2.504;2023-12-07T01:21:14;100828.12;;;18.33
52673;BMP280;38568;53.260;-2.504;2023-12-07T01:23:40;100822.96;;;18.54
52673;BMP280;38568;53.260;-2.504;2023-12-07T01:26:06;100814.21;;;18.49
52673;BMP280;38568;53.260;-2.504;2023-12-07T01:28:31;100805.43;;;18.49
52673;BMP280;38568;53.260;-2.504;2023-12-07T01:30:57;100797.33;;;18.38
52673;BMP280;38568;53.260;-2.504;2023-12-07T01:33:23;100796.87;;;18.33
52673;BMP280;38568;53.260;-2.504;2023-12-07T01:35:49;100793.18;;;18.09
52673;BMP280;38568;53.260;-2.504;2023-12-07T01:38:14;100792.95;;;18.23
52673;BMP280;38568;53.260;-2.504;2023-12-07T01:40:40;100790.85;;;18.26
52673;BMP280;38568;53.260;-2.504;2023-12-07T01:43:06;100783.40;;;18.21
52673;BMP280;38568;53.260;-2.504;2023-12-07T01:45:31;100785.61;;;18.17
52673;BMP280;38568;53.260;-2.504;2023-12-07T01:47:58;100780.04;;;18.15
52673;BMP280;38568;53.260;-2.504;2023-12-07T01:50:23;100771.99;;;18.13
52673;BMP280;38568;53.260;-2.504;2023-12-07T01:52:54;100768.66;;;18.07
52673;BMP280;38568;53.260;-2.504;2023-12-07T01:55:16;100766.79;;;18.01
52673;BMP280;38568;53.260;-2.504;2023-12-07T01:57:41;100770.28;;;18.26
52673;BMP280;38568;53.260;-2.504;2023-12-07T02:02:32;100769.27;;;17.98
52673;BMP280;38568;53.260;-2.504;2023-12-07T02:04:58;100759.10;;;17.92
52673;BMP280;38568;53.260;-2.504;2023-12-07T02:07:23;100758.18;;;17.91
52673;BMP280;38568;53.260;-2.504;2023-12-07T02:09:49;100746.81;;;17.88
52673;BMP280;38568;53.260;-2.504;2023-12-07T02:12:15;100739.63;;;18.08
52673;BMP280;38568;53.260;-2.504;2023-12-07T02:14:41;100732.01;;;17.81
52673;BMP280;38568;53.260;-2.504;2023-12-07T02:17:12;100718.30;;;18.12
52673;BMP280;38568;53.260;-2.504;2023-12-07T02:19:45;100721.94;;;17.85
52673;BMP280;38568;53.260;-2.504;2023-12-07T02:22:01;100722.42;;;18.06
52673;BMP280;38568;53.260;-2.504;2023-12-07T02:24:27;100731.72;;;17.78
52673;BMP280;38568;53.260;-2.504;2023-12-07T02:26:54;100723.59;;;18.18
52673;BMP280;38568;53.260;-2.504;2023-12-07T02:29:15;100727.06;;;17.74
52673;BMP280;38568;53.260;-2.504;2023-12-07T02:31:41;100725.79;;;17.91
52673;BMP280;38568;53.260;-2.504;2023-12-07T02:34:07;100722.31;;;17.62
52673;BMP280;38568;53.260;-2.504;2023-12-07T02:36:33;100711.23;;;18.11
52673;BMP280;38568;53.260;-2.504;2023-12-07T02:38:59;100706.99;;;17.79
52673;BMP280;38568;53.260;-2.504;2023-12-07T02:41:25;100706.45;;;17.57
52673;BMP280;38568;53.260;-2.504;2023-12-07T02:43:50;100698.32;;;18.01
52673;BMP280;38568;53.260;-2.504;2023-12-07T02:46:15;100696.50;;;17.55
52673;BMP280;38568;53.260;-2.504;2023-12-07T02:48:41;100686.73;;;17.75
52673;BMP280;38568;53.260;-2.504;2023-12-07T02:51:07;100679.73;;;17.92
52673;BMP280;38568;53.260;-2.504;2023-12-07T02:53:33;100665.05;;;17.91
52673;BMP280;38568;53.260;-2.504;2023-12-07T02:55:58;100664.25;;;17.45
52673;BMP280;38568;53.260;-2.504;2023-12-07T02:58:24;100659.83;;;17.89
52673;BMP280;38568;53.260;-2.504;2023-12-07T03:00:50;100644.54;;;17.64
52673;BMP280;38568;53.260;-2.504;2023-12-07T03:03:16;100651.32;;;17.90
52673;BMP280;38568;53.260;-2.504;2023-12-07T03:05:52;100639.72;;;17.87
52673;BMP280;38568;53.260;-2.504;2023-12-07T03:08:07;100631.92;;;17.38
52673;BMP280;38568;53.260;-2.504;2023-12-07T03:10:33;100630.53;;;17.60
52673;BMP280;38568;53.260;-2.504;2023-12-07T03:12:59;100633.60;;;17.85
52673;BMP280;38568;53.260;-2.504;2023-12-07T03:15:24;100627.02;;;17.32
52673;BMP280;38568;53.260;-2.504;2023-12-07T03:17:50;100624.74;;;17.85
52673;BMP280;38568;53.260;-2.504;2023-12-07T03:20:16;100621.95;;;17.89
52673;BMP280;38568;53.260;-2.504;2023-12-07T03:22:41;100612.95;;;17.78
52673;BMP280;38568;53.260;-2.504;2023-12-07T03:25:07;100605.87;;;17.74
52673;BMP280;38568;53.260;-2.504;2023-12-07T03:27:34;100599.40;;;17.50
52673;BMP280;38568;53.260;-2.504;2023-12-07T03:29:58;100593.99;;;17.66
52673;BMP280;38568;53.260;-2.504;2023-12-07T03:32:24;100594.62;;;17.65
52673;BMP280;38568;53.260;-2.504;2023-12-07T03:34:50;100583.01;;;17.61
52673;BMP280;38568;53.260;-2.504;2023-12-07T03:37:16;100579.70;;;17.35
52673;BMP280;38568;53.260;-2.504;2023-12-07T03:39:42;100576.01;;;17.59
52673;BMP280;38568;53.260;-2.504;2023-12-07T03:42:07;100569.67;;;17.57
52673;BMP280;38568;53.260;-2.504;2023-12-07T03:44:33;100561.06;;;17.56
52673;BMP280;38568;53.260;-2.504;2023-12-07T03:46:59;100554.02;;;17.27
52673;BMP280;38568;53.260;-2.504;2023-12-07T03:49:25;100544.46;;;17.54
52673;BMP280;38568;53.260;-2.504;2023-12-07T03:51:50;100542.77;;;17.54
52673;BMP280;38568;53.260;-2.504;2023-12-07T03:54:16;100539.96;;;17.51
52673;BMP280;38568;53.260;-2.504;2023-12-07T03:56:42;100536.51;;;17.50
52673;BMP280;38568;53.260;-2.504;2023-12-07T03:59:08;100534.34;;;17.26
52673;BMP280;38568;53.260;-2.504;2023-12-07T04:01:33;100535.21;;;17.47
52673;BMP280;38568;53.260;-2.504;2023-12-07T04:03:59;100532.23;;;17.46
52673;BMP280;38568;53.260;-2.504;2023-12-07T04:06:25;100536.60;;;17.21
52673;BMP280;38568;53.260;-2.504;2023-12-07T04:08:51;100528.23;;;17.45
52673;BMP280;38568;53.260;-2.504;2023-12-07T04:11:17;100525.84;;;17.42
52673;BMP280;38568;53.260;-2.504;2023-12-07T04:13:42;100517.95;;;17.43
52673;BMP280;38568;53.260;-2.504;2023-12-07T04:16:08;100515.00;;;17.42
52673;BMP280;38568;53.260;-2.504;2023-12-07T04:18:33;100502.95;;;17.40
52673;BMP280;38568;53.260;-2.504;2023-12-07T04:20:59;100498.88;;;17.68
52673;BMP280;38568;53.260;-2.504;2023-12-07T04:23:25;100486.90;;;17.42
52673;BMP280;38568;53.260;-2.504;2023-12-07T04:25:50;100482.77;;;17.33
52673;BMP280;38568;53.260;-2.504;2023-12-07T04:28:16;100486.70;;;17.30
52673;BMP280;38568;53.260;-2.504;2023-12-07T04:30:42;100477.91;;;17.07
52673;BMP280;38568;53.260;-2.504;2023-12-07T04:33:08;100478.67;;;17.35
52673;BMP280;38568;53.260;-2.504;2023-12-07T04:35:34;100485.43;;;17.31
52673;BMP280;38568;53.260;-2.504;2023-12-07T04:38:04;100480.99;;;17.32
52673;BMP280;38568;53.260;-2.504;2023-12-07T04:40:25;100473.75;;;17.33
52673;BMP280;38568;53.260;-2.504;2023-12-07T04:42:51;100471.67;;;17.40
52673;BMP280;38568;53.260;-2.504;2023-12-07T04:45:17;100469.85;;;17.54
52673;BMP280;38568;53.260;-2.504;2023-12-07T04:47:42;100463.47;;;17.71
52673;BMP280;38568;53.260;-2.504;2023-12-07T04:50:08;100470.93;;;17.88
52673;BMP280;38568;53.260;-2.504;2023-12-07T04:52:39;100472.02;;;18.05
52673;BMP280;38568;53.260;-2.504;2023-12-07T04:54:59;100466.02;;;17.97
52673;BMP280;38568;53.260;-2.504;2023-12-07T04:57:25;100453.75;;;18.00
52673;BMP280;38568;53.260;-2.504;2023-12-07T04:59:51;100447.03;;;18.08
52673;BMP280;38568;53.260;-2.504;2023-12-07T05:02:17;100439.06;;;18.29
52673;BMP280;38568;53.260;-2.504;2023-12-07T05:04:43;100435.21;;;18.46
52673;BMP280;38568;53.260;-2.504;2023-12-07T05:07:09;100442.27;;;18.22
52673;BMP280;38568;53.260;-2.504;2023-12-07T05:09:34;100440.09;;;18.56
52673;BMP280;38568;53.260;-2.504;2023-12-07T05:12:00;100445.26;;;18.57
52673;BMP280;38568;53.260;-2.504;2023-12-07T05:14:25;100442.40;;;18.64
52673;BMP280;38568;53.260;-2.504;2023-12-07T05:16:51;100442.67;;;18.76
52673;BMP280;38568;53.260;-2.504;2023-12-07T05:19:17;100446.51;;;18.88
52673;BMP280;38568;53.260;-2.504;2023-12-07T05:21:43;100446.08;;;18.90
52673;BMP280;38568;53.260;-2.504;2023-12-07T05:24:08;100445.31;;;18.88
52673;BMP280;38568;53.260;-2.504;2023-12-07T05:26:34;100439.89;;;18.83
52673;BMP280;38568;53.260;-2.504;2023-12-07T05:29:00;100441.29;;;18.84
52673;BMP280;38568;53.260;-2.504;2023-12-07T05:31:26;100441.31;;;18.81
52673;BMP280;38568;53.260;-2.504;2023-12-07T05:33:51;100441.38;;;18.60
52673;BMP280;38568;53.260;-2.504;2023-12-07T05:36:17;100431.68;;;18.85
52673;BMP280;38568;53.260;-2.504;2023-12-07T05:38:43;100429.63;;;18.94
52673;BMP280;38568;53.260;-2.504;2023-12-07T05:41:09;100424.75;;;19.02
52673;BMP280;38568;53.260;-2.504;2023-12-07T05:43:35;100423.48;;;18.79
52673;BMP280;38568;53.260;-2.504;2023-12-07T05:46:00;100420.13;;;19.12
52673;BMP280;38568;53.260;-2.504;2023-12-07T05:48:25;100417.11;;;19.12
52673;BMP280;38568;53.260;-2.504;2023-12-07T05:50:51;100408.00;;;19.04
52673;BMP280;38568;53.260;-2.504;2023-12-07T05:53:16;100401.27;;;19.08
52673;BMP280;38568;53.260;-2.504;2023-12-07T05:55:47;100405.72;;;19.12
52673;BMP280;38568;53.260;-2.504;2023-12-07T05:58:08;100394.07;;;19.03
52673;BMP280;38568;53.260;-2.504;2023-12-07T06:00:33;100383.44;;;18.79
52673;BMP280;38568;53.260;-2.504;2023-12-07T06:02:59;100382.95;;;19.10
52673;BMP280;38568;53.260;-2.504;2023-12-07T06:05:30;100379.72;;;19.07
52673;BMP280;38568;53.260;-2.504;2023-12-07T06:07:51;100377.21;;;18.90
52673;BMP280;38568;53.260;-2.504;2023-12-07T06:10:16;100370.42;;;18.94
52673;BMP280;38568;53.260;-2.504;2023-12-07T06:12:42;100361.79;;;18.96
52673;BMP280;38568;53.260;-2.504;2023-12-07T06:15:09;100360.70;;;19.22
52673;BMP280;38568;53.260;-2.504;2023-12-07T06:17:34;100362.33;;;18.84
52673;BMP280;38568;53.260;-2.504;2023-12-07T06:20:00;100353.25;;;19.12
52673;BMP280;38568;53.260;-2.504;2023-12-07T06:22:25;100348.62;;;19.09
52673;BMP280;38568;53.260;-2.504;2023-12-07T06:24:51;100352.98;;;19.04
52673;BMP280;38568;53.260;-2.504;2023-12-07T06:27:17;100347.29;;;19.23
52673;BMP280;38568;53.260;-2.504;2023-12-07T06:29:42;100334.66;;;19.01
52673;BMP280;38568;53.260;-2.504;2023-12-07T06:32:08;100328.68;;;18.97
52673;BMP280;38568;53.260;-2.504;2023-12-07T06:34:36;100325.39;;;19.00
52673;BMP280;38568;53.260;-2.504;2023-12-07T06:37:00;100310.83;;;19.00
52673;BMP280;38568;53.260;-2.504;2023-12-07T06:39:26;100317.28;;;19.02
52673;BMP280;38568;53.260;-2.504;2023-12-07T06:41:51;100318.93;;;19.23
52673;BMP280;38568;53.260;-2.504;2023-12-07T06:44:17;100316.16;;;19.05
52673;BMP280;38568;53.260;-2.504;2023-12-07T06:46:43;100323.05;;;19.27
52673;BMP280;38568;53.260;-2.504;2023-12-07T06:49:09;100308.56;;;18.80
52673;BMP280;38568;53.260;-2.504;2023-12-07T06:51:35;100311.92;;;18.87
52673;BMP280;38568;53.260;-2.504;2023-12-07T06:54:00;100313.75;;;19.15
52673;BMP280;38568;53.260;-2.504;2023-12-07T06:56:26;100316.49;;;19.26
52673;BMP280;38568;53.260;-2.504;2023-12-07T06:58:51;100304.18;;;19.25
52673;BMP280;38568;53.260;-2.504;2023-12-07T07:01:17;100303.02;;;19.03
52673;BMP280;38568;53.260;-2.504;2023-12-07T07:03:43;100297.00;;;19.31
52673;BMP280;38568;53.260;-2.504;2023-12-07T07:06:14;100292.51;;;19.06
52673;BMP280;38568;53.260;-2.504;2023-12-07T07:08:35;100290.39;;;19.12
52673;BMP280;38568;53.260;-2.504;2023-12-07T07:11:11;100277.34;;;19.11
52673;BMP280;38568;53.260;-2.504;2023-12-07T07:13:26;100278.43;;;19.14
52673;BMP280;38568;53.260;-2.504;2023-12-07T07:15:52;100269.08;;;18.83
52673;BMP280;38568;53.260;-2.504;2023-12-07T07:18:18;100272.00;;;18.98
52673;BMP280;38568;53.260;-2.504;2023-12-07T07:20:44;100268.73;;;18.94
52673;BMP280;38568;53.260;-2.504;2023-12-07T07:23:09;100272.10;;;19.18
52673;BMP280;38568;53.260;-2.504;2023-12-07T07:25:35;100272.17;;;19.11
52673;BMP280;38568;53.260;-2.504;2023-12-07T07:28:01;100266.33;;;19.33
52673;BMP280;38568;53.260;-2.504;2023-12-07T07:30:27;100266.24;;;19.14
52673;BMP280;38568;53.260;-2.504;2023-12-07T07:32:52;100258.47;;;19.34
52673;BMP280;38568;53.260;-2.504;2023-12-07T07:35:18;100259.82;;;19.04
52673;BMP280;38568;53.260;-2.504;2023-12-07T07:37:43;100254.72;;;19.24
52673;BMP280;38568;53.260;-2.504;2023-12-07T07:40:10;100251.41;;;19.22
52673;BMP280;38568;53.260;-2.504;2023-12-07T07:42:34;100258.94;;;19.16
52673;BMP280;38568;53.260;-2.504;2023-12-07T07:45:00;100248.75;;;19.18
52673;BMP280;38568;53.260;-2.504;2023-12-07T07:47:26;100244.49;;;18.99
52673;BMP280;38568;53.260;-2.504;2023-12-07T07:49:52;100245.43;;;19.19
52673;BMP280;38568;53.260;-2.504;2023-12-07T07:52:17;100239.17;;;19.33
52673;BMP280;38568;53.260;-2.504;2023-12-07T07:54:43;100233.86;;;18.82
52673;BMP280;38568;53.260;-2.504;2023-12-07T07:57:09;100238.76;;;19.06
52673;BMP280;38568;53.260;-2.504;2023-12-07T07:59:35;100231.34;;;19.15
52673;BMP280;38568;53.260;-2.504;2023-12-07T08:02:01;100224.37;;;19.17
52673;BMP280;38568;53.260;-2.504;2023-12-07T08:04:26;100222.52;;;19.16
52673;BMP280;38568;53.260;-2.504;2023-12-07T08:06:52;100217.70;;;18.99
52673;BMP280;38568;53.260;-2.504;2023-12-07T08:09:18;100213.83;;;19.16
52673;BMP280;38568;53.260;-2.504;2023-12-07T08:11:43;100211.46;;;19.43
52673;BMP280;38568;53.260;-2.504;2023-12-07T08:14:09;100214.68;;;19.20
52673;BMP280;38568;53.260;-2.504;2023-12-07T08:16:35;100209.28;;;19.25
52673;BMP280;38568;53.260;-2.504;2023-12-07T08:19:01;100200.71;;;19.39
52673;BMP280;38568;53.260;-2.504;2023-12-07T08:21:27;100207.29;;;19.15
52673;BMP280;38568;53.260;-2.504;2023-12-07T08:23:53;100199.08;;;18.91
52673;BMP280;38568;53.260;-2.504;2023-12-07T08:26:18;100194.95;;;18.98
52673;BMP280;38568;53.260;-2.504;2023-12-07T08:28:44;100189.33;;;19.24
52673;BMP280;38568;53.260;-2.504;2023-12-07T08:31:10;100184.17;;;19.14
52673;BMP280;38568;53.260;-2.504;2023-12-07T08:33:36;100181.87;;;19.10
52673;BMP280;38568;53.260;-2.504;2023-12-07T08:36:01;100180.87;;;19.00
52673;BMP280;38568;53.260;-2.504;2023-12-07T08:38:27;100177.61;;;18.87
52673;BMP280;38568;53.260;-2.504;2023-12-07T08:40:53;100166.48;;;19.08
52673;BMP280;38568;53.260;-2.504;2023-12-07T08:43:21;100159.75;;;19.24
52673;BMP280;38568;53.260;-2.504;2023-12-07T08:45:44;100161.98;;;19.23
52673;BMP280;38568;53.260;-2.504;2023-12-07T08:48:10;100164.65;;;18.96
52673;BMP280;38568;53.260;-2.504;2023-12-07T08:50:35;100162.07;;;18.97
52673;BMP280;38568;53.260;-2.504;2023-12-07T08:53:01;100157.10;;;19.43
52673;BMP280;38568;53.260;-2.504;2023-12-07T08:55:27;100153.78;;;19.11
52673;BMP280;38568;53.260;-2.504;2023-12-07T08:57:53;100151.56;;;19.36
52673;BMP280;38568;53.260;-2.504;2023-12-07T09:00:19;100146.01;;;19.64
52673;BMP280;38568;53.260;-2.504;2023-12-07T09:02:44;100142.95;;;19.63
52673;BMP280;38568;53.260;-2.504;2023-12-07T09:05:10;100133.90;;;19.23
52673;BMP280;38568;53.260;-2.504;2023-12-07T09:07:36;100127.11;;;19.42
52673;BMP280;38568;53.260;-2.504;2023-12-07T09:10:02;100122.08;;;19.41
52673;BMP280;38568;53.260;-2.504;2023-12-07T09:12:27;100118.61;;;19.37
52673;BMP280;38568;53.260;-2.504;2023-12-07T09:14:53;100118.72;;;19.12
52673;BMP280;38568;53.260;-2.504;2023-12-07T09:17:24;100113.10;;;19.23
52673;BMP280;38568;53.260;-2.504;2023-12-07T09:19:45;100121.72;;;19.38
52673;BMP280;38568;53.260;-2.504;2023-12-07T09:22:10;100120.52;;;19.67
52673;BMP280;38568;53.260;-2.504;2023-12-07T09:24:36;100124.14;;;19.64
52673;BMP280;38568;53.260;-2.504;2023-12-07T09:27:02;100127.95;;;19.68
52673;BMP280;38568;53.260;-2.504;2023-12-07T09:29:28;100122.05;;;19.75
52673;BMP280;38568;53.260;-2.504;2023-12-07T09:31:53;100118.48;;;19.63
52673;BMP280;38568;53.260;-2.504;2023-12-07T09:34:20;100108.76;;;19.60
52673;BMP280;38568;53.260;-2.504;2023-12-07T09:36:45;100101.47;;;19.88
52673;BMP280;38568;53.260;-2.504;2023-12-07T09:39:11;100100.00;;;19.60
52673;BMP280;38568;53.260;-2.504;2023-12-07T09:41:39;100094.04;;;19.59
52673;BMP280;38568;53.260;-2.504;2023-12-07T09:44:02;100088.40;;;19.61
52673;BMP280;38568;53.260;-2.504;2023-12-07T09:46:29;100092.21;;;19.63
52673;BMP280;38568;53.260;-2.504;2023-12-07T09:48:54;100093.12;;;19.67
52673;BMP280;38568;53.260;-2.504;2023-12-07T09:51:20;100091.26;;;19.80
52673;BMP280;38568;53.260;-2.504;2023-12-07T09:53:49;100095.75;;;19.78
52673;BMP280;38568;53.260;-2.504;2023-12-07T09:56:11;100093.85;;;19.86
52673;BMP280;38568;53.260;-2.504;2023-12-07T09:58:39;100093.43;;;19.75
52673;BMP280;38568;53.260;-2.504;2023-12-07T10:01:03;100085.91;;;20.02
52673;BMP280;38568;53.260;-2.504;2023-12-07T10:03:28;100074.40;;;19.77
52673;BMP280;38568;53.260;-2.504;2023-12-07T10:05:55;100075.18;;;19.88
52673;BMP280;38568;53.260;-2.504;2023-12-07T10:08:26;100071.34;;;19.82
52673;BMP280;38568;53.260;-2.504;2023-12-07T10:10:53;100073.96;;;20.00
52673;BMP280;38568;53.260;-2.504;2023-12-07T10:13:12;100070.06;;;19.76
52673;BMP280;38568;53.260;-2.504;2023-12-07T10:15:37;100064.33;;;19.65
52673;BMP280;38568;53.260;-2.504;2023-12-07T10:18:03;100061.44;;;19.64
52673;BMP280;38568;53.260;-2.504;2023-12-07T10:20:29;100053.19;;;19.52
52673;BMP280;38568;53.260;-2.504;2023-12-07T10:23:01;100056.44;;;19.41
52673;BMP280;38568;53.260;-2.504;2023-12-07T10:25:21;100047.18;;;19.31
52673;BMP280;38568;53.260;-2.504;2023-12-07T10:27:51;100039.11;;;19.70
52673;BMP280;38568;53.260;-2.504;2023-12-07T10:30:12;100029.18;;;19.23
52673;BMP280;38568;53.260;-2.504;2023-12-07T10:32:38;100034.98;;;19.47
52673;BMP280;38568;53.260;-2.504;2023-12-07T10:35:04;100028.81;;;19.17
52673;BMP280;38568;53.260;-2.504;2023-12-07T10:37:29;100022.50;;;19.35
52673;BMP280;38568;53.260;-2.504;2023-12-07T10:39:55;100010.85;;;19.18
52673;BMP280;38568;53.260;-2.504;2023-12-07T10:42:24;100017.53;;;19.57
52673;BMP280;38568;53.260;-2.504;2023-12-07T10:44:49;100014.72;;;19.13
52673;BMP280;38568;53.260;-2.504;2023-12-07T10:47:12;100002.91;;;19.34
52673;BMP280;38568;53.260;-2.504;2023-12-07T10:49:40;99989.38;;;19.07
52673;BMP280;38568;53.260;-2.504;2023-12-07T10:52:07;99980.18;;;19.29
52673;BMP280;38568;53.260;-2.504;2023-12-07T10:54:37;99971.38;;;19.24
52673;BMP280;38568;53.260;-2.504;2023-12-07T10:56:56;99976.83;;;19.38
52673;BMP280;38568;53.260;-2.504;2023-12-07T10:59:21;99968.96;;;19.31
52673;BMP280;38568;53.260;-2.504;2023-12-07T11:01:47;99960.88;;;19.68
52673;BMP280;38568;53.260;-2.504;2023-12-07T11:04:14;99968.23;;;19.69
52673;BMP280;38568;53.260;-2.504;2023-12-07T11:06:39;99972.47;;;19.76
52673;BMP280;38568;53.260;-2.504;2023-12-07T11:09:07;99969.44;;;19.91
52673;BMP280;38568;53.260;-2.504;2023-12-07T11:11:34;99965.74;;;20.25
52673;BMP280;38568;53.260;-2.504;2023-12-07T11:13:59;99963.32;;;20.24
52673;BMP280;38568;53.260;-2.504;2023-12-07T11:16:29;99952.45;;;20.30
52673;BMP280;38568;53.260;-2.504;2023-12-07T11:18:54;99958.44;;;20.21
52673;BMP280;38568;53.260;-2.504;2023-12-07T11:21:12;99957.04;;;19.88
52673;BMP280;38568;53.260;-2.504;2023-12-07T11:23:38;99956.62;;;20.08
52673;BMP280;38568;53.260;-2.504;2023-12-07T11:26:04;99956.72;;;20.22
52673;BMP280;38568;53.260;-2.504;2023-12-07T11:28:37;99956.20;;;20.32
52673;BMP280;38568;53.260;-2.504;2023-12-07T11:30:55;99955.16;;;20.24
52673;BMP280;38568;53.260;-2.504;2023-12-07T11:33:21;99951.62;;;20.13
52673;BMP280;38568;53.260;-2.504;2023-12-07T11:38:13;99951.65;;;20.00
52673;BMP280;38568;53.260;-2.504;2023-12-07T11:40:40;99953.69;;;19.64
52673;BMP280;38568;53.260;-2.504;2023-12-07T11:43:04;99945.46;;;19.83
52673;BMP280;38568;53.260;-2.504;2023-12-07T11:45:37;99945.41;;;19.80
52673;BMP280;38568;53.260;-2.504;2023-12-07T11:48:07;99942.38;;;19.59
52673;BMP280;38568;53.260;-2.504;2023-12-07T11:50:22;99930.39;;;19.93
52673;BMP280;38568;53.260;-2.504;2023-12-07T11:52:47;99921.84;;;20.18
52673;BMP280;38568;53.260;-2.504;2023-12-07T11:55:13;99907.01;;;20.07
52673;BMP280;38568;53.260;-2.504;2023-12-07T11:57:39;99905.51;;;20.13
52673;BMP280;38568;53.260;-2.504;2023-12-07T12:00:06;99904.65;;;19.90
52673;BMP280;38568;53.260;-2.504;2023-12-07T12:02:30;99898.99;;;20.16
52673;BMP280;38568;53.260;-2.504;2023-12-07T12:04:58;99885.14;;;20.33
52673;BMP280;38568;53.260;-2.504;2023-12-07T12:07:24;99880.13;;;20.18
52673;BMP280;38568;53.260;-2.504;2023-12-07T12:09:48;99870.20;;;20.36
52673;BMP280;38568;53.260;-2.504;2023-12-07T12:12:13;99878.66;;;20.34
52673;BMP280;38568;53.260;-2.504;2023-12-07T12:14:39;99872.99;;;19.84
52673;BMP280;38568;53.260;-2.504;2023-12-07T12:17:05;99865.47;;;20.01
52673;BMP280;38568;53.260;-2.504;2023-12-07T12:19:32;99872.35;;;20.16
52673;BMP280;38568;53.260;-2.504;2023-12-07T12:21:56;99868.76;;;20.13
52673;BMP280;38568;53.260;-2.504;2023-12-07T12:24:22;99863.08;;;20.13
52673;BMP280;38568;53.260;-2.504;2023-12-07T12:26:48;99852.82;;;20.11
52673;BMP280;38568;53.260;-2.504;2023-12-07T12:29:14;99846.84;;;19.88
52673;BMP280;38568;53.260;-2.504;2023-12-07T12:31:39;99846.92;;;20.24
52673;BMP280;38568;53.260;-2.504;2023-12-07T12:34:06;99838.11;;;20.21
52673;BMP280;38568;53.260;-2.504;2023-12-07T12:36:31;99831.35;;;20.26
52673;BMP280;38568;53.260;-2.504;2023-12-07T12:39:01;99834.49;;;20.26
52673;BMP280;38568;53.260;-2.504;2023-12-07T12:41:23;99826.60;;;20.37
52673;BMP280;38568;53.260;-2.504;2023-12-07T12:43:48;99821.75;;;20.67
52673;BMP280;38568;53.260;-2.504;2023-12-07T12:46:14;99820.94;;;20.53
52673;BMP280;38568;53.260;-2.504;2023-12-07T12:48:53;99817.69;;;20.21
52673;BMP280;38568;53.260;-2.504;2023-12-07T12:51:10;99816.05;;;19.97
52673;BMP280;38568;53.260;-2.504;2023-12-07T12:53:32;99806.95;;;20.18
52673;BMP280;38568;53.260;-2.504;2023-12-07T12:56:01;99802.76;;;20.01
52673;BMP280;38568;53.260;-2.504;2023-12-07T12:58:22;99796.36;;;19.78
52673;BMP280;38568;53.260;-2.504;2023-12-07T13:00:47;99789.28;;;20.35
52673;BMP280;38568;53.260;-2.504;2023-12-07T13:03:13;99783.89;;;20.23
52673;BMP280;38568;53.260;-2.504;2023-12-07T13:05:39;99778.30;;;20.69
52673;BMP280;38568;53.260;-2.504;2023-12-07T13:08:05;99763.72;;;20.73
52673;BMP280;38568;53.260;-2.504;2023-12-07T13:10:31;99754.11;;;20.77
52673;BMP280;38568;53.260;-2.504;2023-12-07T13:12:57;99749.01;;;20.23
52673;BMP280;38568;53.260;-2.504;2023-12-07T13:15:22;99742.80;;;20.25
52673;BMP280;38568;53.260;-2.504;2023-12-07T13:17:48;99735.15;;;20.48
52673;BMP280;38568;53.260;-2.504;2023-12-07T13:20:14;99739.43;;;20.66
52673;BMP280;38568;53.260;-2.504;2023-12-07T13:22:44;99739.03;;;20.39
52673;BMP280;38568;53.260;-2.504;2023-12-07T13:25:06;99727.45;;;20.56
52673;BMP280;38568;53.260;-2.504;2023-12-07T13:27:32;99729.15;;;20.47
52673;BMP280;38568;53.260;-2.504;2023-12-07T13:29:57;99728.17;;;20.20
52673;BMP280;38568;53.260;-2.504;2023-12-07T13:32:27;99732.02;;;20.11
52673;BMP280;38568;53.260;-2.504;2023-12-07T13:34:48;99734.22;;;19.94
52673;BMP280;38568;53.260;-2.504;2023-12-07T13:37:14;99721.58;;;20.02
52673;BMP280;38568;53.260;-2.504;2023-12-07T13:39:40;99714.14;;;20.30
52673;BMP280;38568;53.260;-2.504;2023-12-07T13:42:05;99697.88;;;20.37